createdAt,value
2022-12-17T00:00:36.000Z,0
2022-12-17T00:01:52.000Z,0
2022-12-17T00:03:08.000Z,0
2022-12-17T00:04:06.695Z,0
2022-12-17T00:05:40.891Z,0
2022-12-17T00:06:39.087Z,0
2022-12-17T00:08:12.298Z,0
2022-12-17T00:09:28.479Z,0
2022-12-17T00:10:44.000Z,0
2022-12-17T00:12:00.884Z,0
2022-12-17T00:13:17.000Z,0
2022-12-17T00:14:15.275Z,0
2022-12-17T00:15:49.000Z,0
2022-12-17T00:16:47.666Z,0
2022-12-17T00:18:21.862Z,0
2022-12-17T00:19:41.000Z,0
2022-12-17T00:20:54.000Z,0
2022-12-17T00:22:10.000Z,0
2022-12-17T00:23:26.000Z,0
2022-12-17T00:24:42.000Z,0
2022-12-17T00:25:59.000Z,0
2022-12-17T00:26:57.231Z,0
2022-12-17T00:28:35.000Z,0
2022-12-17T00:29:28.636Z,0
2022-12-17T00:31:02.832Z,0
2022-12-17T00:32:01.027Z,0
2022-12-17T00:33:35.000Z,0
2022-12-17T00:34:51.000Z,0
2022-12-17T00:36:07.000Z,0
2022-12-17T00:37:23.000Z,0
2022-12-17T00:38:40.000Z,0
2022-12-17T00:39:56.000Z,0
2022-12-17T00:41:12.397Z,0
2022-12-17T00:42:28.000Z,0
2022-12-17T00:43:48.000Z,0
2022-12-17T00:45:00.979Z,0
2022-12-17T00:46:16.000Z,0
2022-12-17T00:47:32.379Z,0
2022-12-17T00:48:48.000Z,0
2022-12-17T00:50:04.782Z,0
2022-12-17T00:51:20.000Z,0
2022-12-17T00:52:19.173Z,0
2022-12-17T00:53:53.369Z,0
2022-12-17T00:55:09.564Z,0
2022-12-17T00:56:25.000Z,0
2022-12-17T00:57:41.943Z,0
2022-12-17T00:58:58.000Z,0
2022-12-17T01:00:14.000Z,0
2022-12-17T01:01:30.000Z,0
2022-12-17T01:02:46.000Z,0
2022-12-17T01:04:02.000Z,0
2022-12-17T01:05:19.000Z,0
2022-12-17T01:06:35.000Z,0
2022-12-17T01:07:55.000Z,0
2022-12-17T01:09:07.000Z,0
2022-12-17T01:10:05.911Z,0
2022-12-17T01:11:39.000Z,0
2022-12-17T01:12:37.318Z,0
2022-12-17T01:14:11.000Z,0
2022-12-17T01:15:27.000Z,0
2022-12-17T01:16:43.000Z,0
2022-12-17T01:17:42.100Z,0
2022-12-17T01:19:16.000Z,0
2022-12-17T01:20:14.492Z,0
2022-12-17T01:21:48.000Z,0
2022-12-17T01:22:46.883Z,0
2022-12-17T01:24:21.079Z,0
2022-12-17T01:25:19.274Z,0
2022-12-17T01:26:35.470Z,0
2022-12-17T01:28:09.000Z,0
2022-12-17T01:29:25.000Z,0
2022-12-17T01:30:24.057Z,0
2022-12-17T01:31:58.000Z,0
2022-12-17T01:32:56.448Z,0
2022-12-17T01:34:34.000Z,0
2022-12-17T01:35:28.839Z,0
2022-12-17T01:37:02.000Z,0
2022-12-17T01:38:18.251Z,0
2022-12-17T01:39:34.000Z,0
2022-12-17T01:40:50.000Z,0
2022-12-17T01:42:06.000Z,0
2022-12-17T01:43:05.034Z,0
2022-12-17T01:44:39.000Z,0
2022-12-17T01:45:55.000Z,0
2022-12-17T01:47:11.621Z,0
2022-12-17T01:48:27.000Z,0
2022-12-17T01:49:44.000Z,0
2022-12-17T01:51:00.196Z,0
2022-12-17T01:52:16.000Z,0
2022-12-17T01:53:32.000Z,0
2022-12-17T01:54:48.000Z,0
2022-12-17T01:55:46.990Z,0
2022-12-17T01:57:21.000Z,0
2022-12-17T01:58:19.381Z,0
2022-12-17T01:59:35.577Z,0
2022-12-17T02:00:51.772Z,0
2022-12-17T02:02:25.000Z,0
2022-12-17T02:03:24.163Z,0
2022-12-17T02:04:58.000Z,0
2022-12-17T02:06:14.000Z,0
2022-12-17T02:07:30.000Z,0
2022-12-17T02:08:46.000Z,0
2022-12-17T02:10:03.000Z,0
2022-12-17T02:11:19.000Z,0
2022-12-17T02:12:35.000Z,0
2022-12-17T02:13:51.000Z,0
2022-12-17T02:15:07.000Z,0
2022-12-17T02:16:23.000Z,0
2022-12-17T02:17:39.329Z,0
2022-12-17T02:18:55.524Z,0
2022-12-17T02:20:15.000Z,0
2022-12-17T02:21:09.915Z,0
2022-12-17T02:22:26.111Z,0
2022-12-17T02:23:42.306Z,0
2022-12-17T02:25:16.000Z,0
2022-12-17T02:26:14.698Z,0
2022-12-17T02:27:48.000Z,0
2022-12-17T02:28:47.089Z,0
2022-12-17T02:30:24.000Z,0
2022-12-17T02:31:37.000Z,0
2022-12-17T02:32:53.000Z,0
2022-12-17T02:34:09.000Z,0
2022-12-17T02:35:26.000Z,0
2022-12-17T02:36:42.000Z,0
2022-12-17T02:37:58.000Z,0
2022-12-17T02:39:14.659Z,0
2022-12-17T02:40:29.000Z,0
2022-12-17T02:41:46.053Z,0
2022-12-17T02:43:02.000Z,0
2022-12-17T02:44:18.000Z,0
2022-12-17T02:45:34.649Z,0
2022-12-17T02:46:32.844Z,0
2022-12-17T02:48:07.000Z,0
2022-12-17T02:49:23.235Z,0
2022-12-17T02:50:39.000Z,0
2022-12-17T02:51:55.000Z,0
2022-12-17T02:53:11.000Z,0
2022-12-17T02:54:10.017Z,0
2022-12-17T02:55:44.000Z,0
2022-12-17T02:57:00.000Z,0
2022-12-17T02:58:16.000Z,0
2022-12-17T02:59:32.000Z,0
2022-12-17T03:00:49.000Z,0
2022-12-17T03:01:47.191Z,0
2022-12-17T03:03:21.000Z,0
2022-12-17T03:04:37.574Z,0
2022-12-17T03:05:52.000Z,0
2022-12-17T03:06:50.991Z,0
2022-12-17T03:08:25.000Z,0
2022-12-17T03:09:41.000Z,0
2022-12-17T03:10:57.000Z,0
2022-12-17T03:11:55.774Z,0
2022-12-17T03:13:29.000Z,0
2022-12-17T03:14:46.000Z,0
2022-12-17T03:16:05.000Z,0
2022-12-17T03:17:18.558Z,0
2022-12-17T03:18:34.000Z,0
2022-12-17T03:19:32.950Z,0
2022-12-17T03:21:07.146Z,0
2022-12-17T03:22:23.000Z,0
2022-12-17T03:23:39.000Z,0
2022-12-17T03:24:37.734Z,0
2022-12-17T03:26:11.000Z,0
2022-12-17T03:27:10.125Z,0
2022-12-17T03:28:43.000Z,0
2022-12-17T03:29:59.531Z,0
2022-12-17T03:31:15.000Z,0
2022-12-17T03:32:13.923Z,0
2022-12-17T03:33:48.000Z,0
2022-12-17T03:35:04.000Z,0
2022-12-17T03:36:20.000Z,0
2022-12-17T03:37:36.000Z,0
2022-12-17T03:38:52.000Z,0
2022-12-17T03:39:51.097Z,0
2022-12-17T03:41:25.293Z,0
2022-12-17T03:42:23.488Z,0
2022-12-17T03:43:57.685Z,0
2022-12-17T03:44:55.880Z,0
2022-12-17T03:46:30.078Z,0
2022-12-17T03:47:46.000Z,0
2022-12-17T03:49:02.000Z,0
2022-12-17T03:50:18.000Z,0
2022-12-17T03:51:34.861Z,0
2022-12-17T03:52:33.056Z,0
2022-12-17T03:54:07.000Z,0
2022-12-17T03:55:23.446Z,0
2022-12-17T03:56:38.000Z,0
2022-12-17T03:57:36.856Z,0
2022-12-17T03:59:11.000Z,0
2022-12-17T04:00:27.000Z,0
2022-12-17T04:01:43.000Z,0
2022-12-17T04:02:41.640Z,0
2022-12-17T04:04:15.000Z,0
2022-12-17T04:05:14.032Z,0
2022-12-17T04:06:48.000Z,0
2022-12-17T04:08:04.000Z,0
2022-12-17T04:09:20.000Z,0
2022-12-17T04:10:18.816Z,0
2022-12-17T04:11:53.000Z,0
2022-12-17T04:13:09.207Z,0
2022-12-17T04:14:25.000Z,0
2022-12-17T04:15:23.599Z,0
2022-12-17T04:16:57.795Z,0
2022-12-17T04:18:14.000Z,0
2022-12-17T04:19:30.186Z,0
2022-12-17T04:20:46.000Z,0
2022-12-17T04:22:02.000Z,0
2022-12-17T04:23:00.894Z,0
2022-12-17T04:24:35.000Z,0
2022-12-17T04:25:51.000Z,0
2022-12-17T04:27:07.000Z,0
2022-12-17T04:28:05.678Z,0
2022-12-17T04:29:39.000Z,0
2022-12-17T04:30:56.000Z,0
2022-12-17T04:32:12.000Z,0
2022-12-17T04:33:28.000Z,0
2022-12-17T04:34:44.000Z,0
2022-12-17T04:35:42.853Z,0
2022-12-17T04:37:17.000Z,0
2022-12-17T04:38:33.244Z,0
2022-12-17T04:39:49.000Z,0
2022-12-17T04:40:47.637Z,0
2022-12-17T04:42:21.000Z,0
2022-12-17T04:43:38.087Z,0
2022-12-17T04:44:54.000Z,0
2022-12-17T04:46:10.589Z,0
2022-12-17T04:47:25.000Z,0
2022-12-17T04:48:42.000Z,0
2022-12-17T04:49:40.254Z,0
2022-12-17T04:51:14.000Z,0
2022-12-17T04:52:30.000Z,0
2022-12-17T04:53:46.000Z,0
2022-12-17T04:55:03.000Z,0
2022-12-17T04:56:19.000Z,0
2022-12-17T04:57:17.430Z,0
2022-12-17T04:58:51.000Z,0
2022-12-17T04:59:49.821Z,0
2022-12-17T05:01:23.034Z,0
2022-12-17T05:02:39.230Z,0
2022-12-17T05:03:37.427Z,0
2022-12-17T05:05:11.000Z,0
2022-12-17T05:06:27.000Z,0
2022-12-17T05:07:44.000Z,0
2022-12-17T05:09:00.000Z,0
2022-12-17T05:10:16.000Z,0
2022-12-17T05:11:32.000Z,0
2022-12-17T05:12:48.786Z,0
2022-12-17T05:14:08.000Z,0
2022-12-17T05:15:21.327Z,0
2022-12-17T05:16:37.000Z,0
2022-12-17T05:17:53.000Z,0
2022-12-17T05:19:10.000Z,0
2022-12-17T05:20:26.000Z,0
2022-12-17T05:21:42.000Z,0
2022-12-17T05:22:40.634Z,0
2022-12-17T05:24:14.000Z,0
2022-12-17T05:25:31.000Z,0
2022-12-17T05:26:47.223Z,0
2022-12-17T05:28:03.408Z,0
2022-12-17T05:29:23.000Z,0
2022-12-17T05:30:34.000Z,0
2022-12-17T05:31:51.000Z,0
2022-12-17T05:33:07.000Z,0
2022-12-17T05:34:23.000Z,0
2022-12-17T05:35:39.000Z,0
2022-12-17T05:36:59.000Z,0
2022-12-17T05:38:12.000Z,0
2022-12-17T05:39:28.196Z,0
2022-12-17T05:40:44.000Z,0
2022-12-17T05:42:00.000Z,0
2022-12-17T05:43:16.000Z,0
2022-12-17T05:44:14.980Z,0
2022-12-17T05:45:31.175Z,0
2022-12-17T05:47:05.000Z,0
2022-12-17T05:48:03.567Z,0
2022-12-17T05:49:19.763Z,0
2022-12-17T05:50:35.958Z,0
2022-12-17T05:52:09.000Z,0
2022-12-17T05:53:29.000Z,0
2022-12-17T05:54:41.000Z,0
2022-12-17T05:55:57.000Z,0
2022-12-17T05:57:13.975Z,0
2022-12-17T05:58:12.170Z,0
2022-12-17T05:59:46.000Z,0
2022-12-17T06:00:44.562Z,0
2022-12-17T06:02:18.000Z,0
2022-12-17T06:03:16.953Z,0
2022-12-17T06:04:32.177Z,0
2022-12-17T06:05:48.372Z,0
2022-12-17T06:07:22.000Z,0
2022-12-17T06:08:38.000Z,0
2022-12-17T06:09:54.000Z,0
2022-12-17T06:11:11.000Z,0
2022-12-17T06:12:27.000Z,0
2022-12-17T06:13:43.548Z,0
2022-12-17T06:14:59.000Z,0
2022-12-17T06:16:15.000Z,0
2022-12-17T06:17:31.153Z,0
2022-12-17T06:18:47.339Z,0
2022-12-17T06:20:03.545Z,0
2022-12-17T06:21:19.000Z,0
2022-12-17T06:22:35.000Z,0
2022-12-17T06:23:34.134Z,0
2022-12-17T06:25:08.000Z,0
2022-12-17T06:26:24.000Z,0
2022-12-17T06:27:40.000Z,0
2022-12-17T06:28:38.918Z,0
2022-12-17T06:30:13.000Z,0
2022-12-17T06:31:11.310Z,0
2022-12-17T06:32:44.533Z,0
2022-12-17T06:34:00.000Z,0
2022-12-17T06:35:16.925Z,0
2022-12-17T06:36:33.000Z,0
2022-12-17T06:37:49.000Z,0
2022-12-17T06:39:05.511Z,0
2022-12-17T06:40:21.000Z,0
2022-12-17T06:41:19.903Z,4
2022-12-17T06:42:54.000Z,4
2022-12-17T06:43:52.295Z,0
2022-12-17T06:45:26.000Z,4
2022-12-17T06:46:42.000Z,4
2022-12-17T06:47:58.000Z,4
2022-12-17T06:49:15.079Z,4
2022-12-17T06:50:31.000Z,4
2022-12-17T06:51:47.000Z,8
2022-12-17T06:53:03.000Z,8
2022-12-17T06:54:19.000Z,8
2022-12-17T06:55:36.000Z,12
2022-12-17T06:56:52.000Z,8
2022-12-17T06:58:08.000Z,12
2022-12-17T06:59:24.647Z,12
2022-12-17T07:00:40.000Z,12
2022-12-17T07:01:39.039Z,16
2022-12-17T07:03:13.000Z,20
2022-12-17T07:04:29.000Z,20
2022-12-17T07:05:44.000Z,20
2022-12-17T07:06:42.952Z,24
2022-12-17T07:08:17.000Z,28
2022-12-17T07:09:15.345Z,28
2022-12-17T07:10:49.000Z,32
2022-12-17T07:12:05.000Z,32
2022-12-17T07:13:03.932Z,40
2022-12-17T07:14:20.128Z,40
2022-12-17T07:15:54.000Z,44
2022-12-17T07:16:52.522Z,52
2022-12-17T07:18:26.000Z,52
2022-12-17T07:19:24.913Z,52
2022-12-17T07:20:58.126Z,60
2022-12-17T07:21:56.321Z,60
2022-12-17T07:23:30.517Z,60
2022-12-17T07:24:46.000Z,64
2022-12-17T07:26:02.000Z,72
2022-12-17T07:27:19.107Z,76
2022-12-17T07:28:35.000Z,84
2022-12-17T07:29:33.498Z,92
2022-12-17T07:31:07.000Z,100
2022-12-17T07:32:05.890Z,108
2022-12-17T07:33:39.000Z,116
2022-12-17T07:34:37.309Z,132
2022-12-17T07:36:11.000Z,140
2022-12-17T07:37:27.000Z,152
2022-12-17T07:38:43.000Z,160
2022-12-17T07:39:42.094Z,168
2022-12-17T07:40:58.290Z,176
2022-12-17T07:42:14.485Z,184
2022-12-17T07:43:48.000Z,188
2022-12-17T07:45:04.861Z,192
2022-12-17T07:46:20.000Z,204
2022-12-17T07:47:18.285Z,224
2022-12-17T07:48:52.000Z,240
2022-12-17T07:50:08.000Z,248
2022-12-17T07:51:24.000Z,264
2022-12-17T07:52:41.000Z,276
2022-12-17T07:53:57.000Z,284
2022-12-17T07:55:13.000Z,288
2022-12-17T07:56:33.000Z,292
2022-12-17T07:57:27.841Z,300
2022-12-17T07:59:05.000Z,308
2022-12-17T08:00:18.229Z,320
2022-12-17T08:01:34.000Z,328
2022-12-17T08:02:50.000Z,332
2022-12-17T08:04:06.000Z,336
2022-12-17T08:05:23.003Z,340
2022-12-17T08:06:39.000Z,348
2022-12-17T08:07:37.391Z,364
2022-12-17T08:09:11.000Z,384
2022-12-17T08:10:27.763Z,400
2022-12-17T08:11:42.999Z,408
2022-12-17T08:12:41.192Z,416
2022-12-17T08:14:15.000Z,436
2022-12-17T08:15:30.000Z,456
2022-12-17T08:16:46.786Z,464
2022-12-17T08:17:44.980Z,468
2022-12-17T08:19:01.173Z,476
2022-12-17T08:20:17.367Z,488
2022-12-17T08:21:51.000Z,500
2022-12-17T08:23:07.000Z,512
2022-12-17T08:24:23.948Z,532
2022-12-17T08:25:40.000Z,548
2022-12-17T08:26:56.000Z,548
2022-12-17T08:28:12.000Z,560
2022-12-17T08:29:28.000Z,588
2022-12-17T08:30:26.916Z,604
2022-12-17T08:32:01.000Z,616
2022-12-17T08:33:17.000Z,624
2022-12-17T08:34:33.497Z,640
2022-12-17T08:35:31.691Z,660
2022-12-17T08:37:06.000Z,676
2022-12-17T08:38:04.199Z,680
2022-12-17T08:39:38.000Z,668
2022-12-17T08:40:54.586Z,664
2022-12-17T08:42:10.000Z,668
2022-12-17T08:43:08.974Z,660
2022-12-17T08:44:43.000Z,664
2022-12-17T08:45:40.390Z,676
2022-12-17T08:47:14.000Z,684
2022-12-17T08:48:12.777Z,692
2022-12-17T08:49:46.000Z,692
2022-12-17T08:50:45.165Z,700
2022-12-17T08:52:19.000Z,716
2022-12-17T08:53:35.000Z,736
2022-12-17T08:54:51.000Z,772
2022-12-17T08:55:49.939Z,788
2022-12-17T08:57:24.000Z,764
2022-12-17T08:58:40.309Z,748
2022-12-17T09:00:00.000Z,764
2022-12-17T09:00:54.714Z,788
2022-12-17T09:02:28.907Z,788
2022-12-17T09:03:45.000Z,784
2022-12-17T09:05:04.000Z,788
2022-12-17T09:06:17.000Z,796
2022-12-17T09:07:33.000Z,800
2022-12-17T09:08:49.000Z,796
2022-12-17T09:10:06.069Z,804
2022-12-17T09:11:04.263Z,832
2022-12-17T09:12:38.000Z,848
2022-12-17T09:13:36.650Z,832
2022-12-17T09:14:51.871Z,816
2022-12-17T09:16:08.065Z,824
2022-12-17T09:17:42.000Z,812
2022-12-17T09:18:58.000Z,776
2022-12-17T09:20:14.000Z,756
2022-12-17T09:21:30.841Z,752
2022-12-17T09:22:50.000Z,780
2022-12-17T09:23:44.241Z,840
2022-12-17T09:25:18.000Z,880
2022-12-17T09:26:34.629Z,904
2022-12-17T09:27:50.000Z,932
2022-12-17T09:28:49.016Z,960
2022-12-17T09:30:23.000Z,984
2022-12-17T09:31:39.000Z,1028
2022-12-17T09:32:55.000Z,1068
2022-12-17T09:33:53.791Z,1084
2022-12-17T09:35:27.984Z,1100
2022-12-17T09:36:26.178Z,1096
2022-12-17T09:38:00.000Z,1096
2022-12-17T09:39:16.562Z,1104
2022-12-17T09:40:31.000Z,1132
2022-12-17T09:41:29.969Z,1136
2022-12-17T09:43:04.000Z,1128
2022-12-17T09:44:19.384Z,1108
2022-12-17T09:45:35.000Z,1108
2022-12-17T09:46:50.000Z,1132
2022-12-17T09:48:07.000Z,1144
2022-12-17T09:49:05.187Z,1176
2022-12-17T09:50:39.000Z,1224
2022-12-17T09:51:37.574Z,1236
2022-12-17T09:53:10.000Z,1248
2022-12-17T09:54:08.978Z,1268
2022-12-17T09:55:43.172Z,1296
2022-12-17T09:56:59.000Z,1288
2022-12-17T09:58:15.559Z,1232
2022-12-17T09:59:13.753Z,1164
2022-12-17T10:00:29.946Z,1088
2022-12-17T10:01:46.140Z,1040
2022-12-17T10:03:20.000Z,1024
2022-12-17T10:04:18.527Z,1032
2022-12-17T10:05:52.000Z,1020
2022-12-17T10:06:50.914Z,992
2022-12-17T10:08:25.000Z,976
2022-12-17T10:09:41.000Z,1008
2022-12-17T10:10:57.495Z,1044
2022-12-17T10:11:55.689Z,1052
2022-12-17T10:13:11.882Z,1052
2022-12-17T10:14:28.076Z,1076
2022-12-17T10:16:02.000Z,1088
2022-12-17T10:17:00.463Z,1096
2022-12-17T10:18:34.656Z,1116
2022-12-17T10:19:32.850Z,1120
2022-12-17T10:21:07.000Z,1100
2022-12-17T10:22:23.000Z,1088
2022-12-17T10:23:39.431Z,1108
2022-12-17T10:24:59.000Z,1144
2022-12-17T10:26:11.000Z,1172
2022-12-17T10:27:10.012Z,1160
2022-12-17T10:28:44.000Z,1140
2022-12-17T10:29:42.399Z,1140
2022-12-17T10:31:16.000Z,1144
2022-12-17T10:32:14.787Z,1156
2022-12-17T10:33:49.000Z,1168
2022-12-17T10:35:05.000Z,1188
2022-12-17T10:36:21.000Z,1204
2022-12-17T10:37:19.561Z,1232
2022-12-17T10:38:53.000Z,1224
2022-12-17T10:40:10.000Z,1224
2022-12-17T10:41:26.000Z,1240
2022-12-17T10:42:41.000Z,1252
2022-12-17T10:43:57.000Z,1252
2022-12-17T10:44:55.914Z,1252
2022-12-17T10:46:30.000Z,1252
2022-12-17T10:47:46.000Z,1244
2022-12-17T10:49:02.000Z,1236
2022-12-17T10:50:00.689Z,1212
2022-12-17T10:51:34.000Z,1188
2022-12-17T10:52:33.077Z,1180
2022-12-17T10:54:07.000Z,1188
2022-12-17T10:55:23.000Z,1196
2022-12-17T10:56:39.000Z,1188
2022-12-17T10:57:36.865Z,1176
2022-12-17T10:59:11.000Z,1160
2022-12-17T11:00:27.000Z,1128
2022-12-17T11:01:43.000Z,1108
2022-12-17T11:02:41.640Z,1104
2022-12-17T11:04:15.000Z,1104
2022-12-17T11:05:14.027Z,1112
2022-12-17T11:06:48.000Z,1124
2022-12-17T11:08:04.000Z,1128
2022-12-17T11:09:20.000Z,1132
2022-12-17T11:10:18.801Z,1140
2022-12-17T11:11:53.000Z,1148
2022-12-17T11:13:08.000Z,1148
2022-12-17T11:14:24.000Z,1160
2022-12-17T11:15:39.000Z,1192
2022-12-17T11:16:55.000Z,1224
2022-12-17T11:17:54.005Z,1224
2022-12-17T11:19:28.000Z,1212
2022-12-17T11:20:44.000Z,1184
2022-12-17T11:22:00.000Z,1168
2022-12-17T11:22:58.779Z,1172
2022-12-17T11:24:32.000Z,1184
2022-12-17T11:25:49.000Z,1188
2022-12-17T11:27:05.000Z,1184
2022-12-17T11:28:21.000Z,1188
2022-12-17T11:29:37.000Z,1208
2022-12-17T11:30:53.000Z,1216
2022-12-17T11:32:10.000Z,1196
2022-12-17T11:33:08.328Z,1164
2022-12-17T11:34:24.521Z,1148
2022-12-17T11:35:40.715Z,1124
2022-12-17T11:36:56.909Z,1084
2022-12-17T11:38:31.102Z,1076
2022-12-17T11:39:47.000Z,1044
2022-12-17T11:40:45.490Z,1016
2022-12-17T11:42:19.000Z,992
2022-12-17T11:43:17.877Z,980
2022-12-17T11:44:52.000Z,976
2022-12-17T11:45:50.264Z,964
2022-12-17T11:47:24.000Z,940
2022-12-17T11:48:22.651Z,924
2022-12-17T11:49:38.844Z,920
2022-12-17T11:51:12.000Z,924
2022-12-17T11:52:28.000Z,932
2022-12-17T11:53:43.453Z,936
2022-12-17T11:54:59.662Z,900
2022-12-17T11:55:57.856Z,872
2022-12-17T11:57:32.000Z,856
2022-12-17T11:58:48.229Z,844
2022-12-17T12:00:04.436Z,832
2022-12-17T12:01:02.630Z,836
2022-12-17T12:02:36.000Z,836
2022-12-17T12:03:53.000Z,828
2022-12-17T12:05:09.000Z,828
2022-12-17T12:06:07.404Z,828
2022-12-17T12:07:45.000Z,840
2022-12-17T12:08:39.792Z,860
2022-12-17T12:10:13.000Z,880
2022-12-17T12:11:30.173Z,888
2022-12-17T12:12:46.000Z,892
2022-12-17T12:14:02.000Z,876
2022-12-17T12:15:18.760Z,856
2022-12-17T12:16:34.000Z,856
2022-12-17T12:17:51.000Z,860
2022-12-17T12:19:07.329Z,856
2022-12-17T12:20:05.534Z,832
2022-12-17T12:21:39.000Z,832
2022-12-17T12:22:55.000Z,820
2022-12-17T12:24:12.000Z,816
2022-12-17T12:25:28.000Z,812
2022-12-17T12:26:48.000Z,804
2022-12-17T12:28:00.000Z,796
2022-12-17T12:29:16.890Z,816
2022-12-17T12:30:33.000Z,844
2022-12-17T12:31:49.269Z,848
2022-12-17T12:33:05.000Z,852
2022-12-17T12:34:21.000Z,828
2022-12-17T12:35:19.858Z,788
2022-12-17T12:36:36.052Z,760
2022-12-17T12:38:09.000Z,752
2022-12-17T12:39:07.466Z,748
2022-12-17T12:40:41.000Z,736
2022-12-17T12:41:57.854Z,728
2022-12-17T12:43:14.000Z,720
2022-12-17T12:44:30.000Z,716
2022-12-17T12:45:46.000Z,728
2022-12-17T12:47:02.000Z,728
2022-12-17T12:48:18.823Z,724
2022-12-17T12:49:17.017Z,720
2022-12-17T12:50:51.000Z,704
2022-12-17T12:52:07.536Z,684
2022-12-17T12:53:27.000Z,684
2022-12-17T12:54:39.939Z,692
2022-12-17T12:55:56.000Z,696
2022-12-17T12:57:12.000Z,688
2022-12-17T12:58:28.000Z,680
2022-12-17T12:59:44.000Z,660
2022-12-17T13:01:00.000Z,652
2022-12-17T13:01:59.101Z,660
2022-12-17T13:03:33.000Z,664
2022-12-17T13:04:31.489Z,648
2022-12-17T13:05:47.682Z,620
2022-12-17T13:07:21.000Z,600
2022-12-17T13:08:38.000Z,596
2022-12-17T13:09:36.263Z,592
2022-12-17T13:11:10.456Z,584
2022-12-17T13:12:26.000Z,580
2022-12-17T13:13:42.000Z,568
2022-12-17T13:14:41.038Z,564
2022-12-17T13:16:14.000Z,556
2022-12-17T13:17:30.000Z,544
2022-12-17T13:18:46.636Z,532
2022-12-17T13:20:02.000Z,524
2022-12-17T13:21:01.023Z,512
2022-12-17T13:22:17.217Z,512
2022-12-17T13:23:51.000Z,516
2022-12-17T13:24:49.604Z,524
2022-12-17T13:26:23.000Z,524
2022-12-17T13:27:39.987Z,512
2022-12-17T13:28:38.332Z,496
2022-12-17T13:29:54.526Z,476
2022-12-17T13:31:28.000Z,464
2022-12-17T13:32:43.000Z,448
2022-12-17T13:34:00.000Z,436
2022-12-17T13:35:16.000Z,428
2022-12-17T13:36:32.000Z,416
2022-12-17T13:37:30.702Z,404
2022-12-17T13:38:46.896Z,392
2022-12-17T13:40:21.000Z,384
2022-12-17T13:41:37.000Z,380
2022-12-17T13:42:35.478Z,376
2022-12-17T13:44:09.000Z,372
2022-12-17T13:45:25.000Z,364
2022-12-17T13:46:42.000Z,356
2022-12-17T13:47:58.246Z,348
2022-12-17T13:49:14.000Z,340
2022-12-17T13:50:12.639Z,332
2022-12-17T13:51:46.000Z,328
2022-12-17T13:52:45.028Z,320
2022-12-17T13:54:18.000Z,324
2022-12-17T13:55:16.431Z,324
2022-12-17T13:56:50.000Z,316
2022-12-17T13:58:06.818Z,312
2022-12-17T13:59:23.012Z,296
2022-12-17T14:00:21.206Z,288
2022-12-17T14:01:55.399Z,280
2022-12-17T14:02:53.593Z,272
2022-12-17T14:04:27.000Z,260
2022-12-17T14:05:25.980Z,248
2022-12-17T14:06:42.174Z,240
2022-12-17T14:07:58.368Z,232
2022-12-17T14:09:32.000Z,220
2022-12-17T14:10:48.000Z,216
2022-12-17T14:12:04.000Z,208
2022-12-17T14:13:03.142Z,204
2022-12-17T14:14:37.336Z,200
2022-12-17T14:15:53.000Z,188
2022-12-17T14:16:51.723Z,180
2022-12-17T14:18:07.917Z,176
2022-12-17T14:19:42.000Z,168
2022-12-17T14:20:58.000Z,164
2022-12-17T14:22:14.000Z,160
2022-12-17T14:23:30.000Z,148
2022-12-17T14:24:47.000Z,144
2022-12-17T14:26:03.000Z,136
2022-12-17T14:27:19.000Z,132
2022-12-17T14:28:17.615Z,128
2022-12-17T14:29:33.809Z,120
2022-12-17T14:30:50.003Z,116
2022-12-17T14:32:24.000Z,108
2022-12-17T14:33:22.511Z,104
2022-12-17T14:34:56.704Z,96
2022-12-17T14:36:12.898Z,92
2022-12-17T14:37:29.000Z,88
2022-12-17T14:38:27.285Z,80
2022-12-17T14:40:05.000Z,76
2022-12-17T14:40:59.673Z,76
2022-12-17T14:42:33.000Z,68
2022-12-17T14:43:32.060Z,64
2022-12-17T14:45:06.253Z,60
2022-12-17T14:46:04.447Z,56
2022-12-17T14:47:38.641Z,52
2022-12-17T14:48:54.000Z,48
2022-12-17T14:50:11.000Z,44
2022-12-17T14:51:09.222Z,40
2022-12-17T14:52:43.000Z,36
2022-12-17T14:53:41.609Z,36
2022-12-17T14:55:15.000Z,32
2022-12-17T14:56:13.024Z,28
2022-12-17T14:57:47.000Z,28
2022-12-17T14:58:45.539Z,24
2022-12-17T15:00:23.000Z,24
2022-12-17T15:01:35.000Z,20
2022-12-17T15:02:52.000Z,20
2022-12-17T15:04:08.000Z,16
2022-12-17T15:05:24.000Z,16
2022-12-17T15:06:22.701Z,16
2022-12-17T15:07:56.894Z,8
2022-12-17T15:08:55.088Z,8
2022-12-17T15:10:29.000Z,8
2022-12-17T15:11:45.000Z,8
2022-12-17T15:13:01.000Z,8
2022-12-17T15:14:17.000Z,4
2022-12-17T15:15:37.000Z,4
2022-12-17T15:16:32.250Z,4
2022-12-17T15:18:06.443Z,4
2022-12-17T15:19:04.637Z,4
2022-12-17T15:20:38.831Z,4
2022-12-17T15:21:55.015Z,4
2022-12-17T15:22:53.218Z,0
2022-12-17T15:24:27.402Z,0
2022-12-17T15:25:43.000Z,4
2022-12-17T15:26:58.812Z,4
2022-12-17T15:28:15.000Z,4
2022-12-17T15:29:13.200Z,0
2022-12-17T15:30:47.000Z,0
2022-12-17T15:31:45.588Z,0
2022-12-17T15:33:19.781Z,0
2022-12-17T15:34:17.975Z,0
2022-12-17T15:35:52.000Z,0
2022-12-17T15:36:50.362Z,0
2022-12-17T15:38:24.000Z,0
2022-12-17T15:39:40.000Z,0
2022-12-17T15:40:56.000Z,0
2022-12-17T15:41:55.138Z,0
2022-12-17T15:43:29.000Z,0
2022-12-17T15:44:27.525Z,0
2022-12-17T15:46:01.000Z,0
2022-12-17T15:47:17.919Z,0
2022-12-17T15:48:16.228Z,0
2022-12-17T15:49:50.000Z,0
2022-12-17T15:51:06.000Z,0
2022-12-17T15:52:22.000Z,0
2022-12-17T15:53:39.000Z,0
2022-12-17T15:54:55.000Z,0
2022-12-17T15:56:11.000Z,0
2022-12-17T15:57:27.000Z,0
2022-12-17T15:58:43.000Z,0
2022-12-17T15:59:59.985Z,0
2022-12-17T16:01:16.163Z,0
2022-12-17T16:02:14.357Z,0
2022-12-17T16:03:48.000Z,0
2022-12-17T16:05:04.000Z,0
2022-12-17T16:06:20.000Z,0
2022-12-17T16:07:19.132Z,0
2022-12-17T16:08:57.000Z,0
2022-12-17T16:09:51.519Z,0
2022-12-17T16:11:25.713Z,0
2022-12-17T16:12:41.933Z,0
2022-12-17T16:13:57.117Z,0
2022-12-17T16:14:55.310Z,0
2022-12-17T16:16:29.000Z,0
2022-12-17T16:17:45.000Z,0
2022-12-17T16:18:43.891Z,0
2022-12-17T16:20:00.085Z,0
2022-12-17T16:21:34.000Z,0
2022-12-17T16:22:32.472Z,0
2022-12-17T16:23:48.666Z,0
2022-12-17T16:25:04.860Z,0
2022-12-17T16:26:39.054Z,0
2022-12-17T16:27:37.247Z,0
2022-12-17T16:29:11.000Z,0
2022-12-17T16:30:27.000Z,0
2022-12-17T16:31:43.828Z,0
2022-12-17T16:33:00.045Z,0
2022-12-17T16:34:16.000Z,0
2022-12-17T16:35:14.410Z,0
2022-12-17T16:36:48.000Z,0
2022-12-17T16:38:04.821Z,0
2022-12-17T16:39:20.000Z,0
2022-12-17T16:40:18.201Z,0
2022-12-17T16:41:56.000Z,0
2022-12-17T16:43:08.000Z,0
2022-12-17T16:44:24.000Z,0
2022-12-17T16:45:22.976Z,0
2022-12-17T16:46:57.169Z,0
2022-12-17T16:48:13.000Z,0
2022-12-17T16:49:29.000Z,0
2022-12-17T16:50:45.000Z,0
2022-12-17T16:52:01.000Z,0
2022-12-17T16:53:00.138Z,0
2022-12-17T16:54:34.331Z,0
2022-12-17T16:55:50.000Z,0
2022-12-17T16:57:06.000Z,0
2022-12-17T16:58:04.913Z,0
2022-12-17T16:59:39.106Z,0
2022-12-17T17:00:55.000Z,0
2022-12-17T17:02:11.000Z,0
2022-12-17T17:03:27.000Z,0
2022-12-17T17:04:43.000Z,0
2022-12-17T17:06:00.000Z,0
2022-12-17T17:07:16.000Z,0
2022-12-17T17:08:32.462Z,0
2022-12-17T17:09:48.000Z,0
2022-12-17T17:11:04.000Z,0
2022-12-17T17:12:03.043Z,0
2022-12-17T17:13:19.237Z,0
2022-12-17T17:14:53.000Z,0
2022-12-17T17:15:51.624Z,0
2022-12-17T17:17:06.833Z,0
2022-12-17T17:18:23.027Z,0
2022-12-17T17:19:57.000Z,0
2022-12-17T17:21:13.000Z,0
2022-12-17T17:22:29.000Z,0
2022-12-17T17:23:27.805Z,0
2022-12-17T17:25:02.000Z,0
2022-12-17T17:26:00.194Z,0
2022-12-17T17:27:34.000Z,0
2022-12-17T17:28:50.598Z,0
2022-12-17T17:30:06.000Z,0
2022-12-17T17:31:04.975Z,0
2022-12-17T17:32:39.000Z,0
2022-12-17T17:33:55.000Z,0
2022-12-17T17:35:11.000Z,0
2022-12-17T17:36:09.754Z,0
2022-12-17T17:37:43.000Z,0
2022-12-17T17:38:42.145Z,0
2022-12-17T17:40:16.000Z,0
2022-12-17T17:41:14.535Z,0
2022-12-17T17:42:48.000Z,0
2022-12-17T17:44:04.000Z,0
2022-12-17T17:45:21.122Z,0
2022-12-17T17:46:37.000Z,0
2022-12-17T17:47:53.000Z,0
2022-12-17T17:49:09.721Z,0
2022-12-17T17:50:25.000Z,0
2022-12-17T17:51:24.100Z,0
2022-12-17T17:52:58.296Z,0
2022-12-17T17:54:14.000Z,0
2022-12-17T17:55:30.000Z,0
2022-12-17T17:56:46.000Z,0
2022-12-17T17:58:03.000Z,0
2022-12-17T17:59:19.000Z,0
2022-12-17T18:00:35.470Z,0
2022-12-17T18:01:33.665Z,0
2022-12-17T18:03:07.000Z,0
2022-12-17T18:04:24.000Z,0
2022-12-17T18:05:39.382Z,0
2022-12-17T18:06:55.602Z,0